Data for 07/29/2008

Time Sea-Level Adjusted Pressure Absolute Pressure Temperature Relative Humidity Dew Point   
(mb) (inHg) (mb) (inHg) (C) (F) (%) (C) (F)
00:05 1018 30.06 847 25.01 19.5 67.1 41 5.9 42.7
00:10 1018 30.06 847 25.01 18.7 65.7 43 6.1 43
00:15 1018 30.06 847 25.01 18.3 65 42 5.2 41.3
00:20 1018 30.06 847 25.01 18.4 65.1 43 5.8 42.4
00:25 1018 30.06 847 25.01 18.3 65 42 5.4 41.8
00:30 1018 30.06 847 25.01 18.4 65.2 37 3.7 38.6
00:35 1018 30.06 847 25.01 18.8 65.8 35 3.1 37.6
00:40 1018 30.06 847 25.01 18.7 65.6 39 4.7 40.5
00:45 1018 30.06 847 25.01 18.3 64.9 41 5.1 41.1
00:50 1018 30.06 847 25.01 18 64.4 41 4.8 40.6
00:55 1018 30.06 847 25.01 17.7 63.9 40 4.2 39.6
01:00 1018 30.06 847 25.01 17.7 63.9 37 3 37.3
01:05 1018 30.06 847 25.01 18 64.3 35 2.5 36.4
01:10 1018 30.06 847 25.01 18.3 64.9 38 3.7 38.6
01:15 1018 30.06 847 25.01 18 64.3 38 3.4 38.2
01:20 1018 30.06 847 25.01 17.8 64 37 2.9 37.1
01:25 1018 30.06 847 25.01 17.8 64 36 2.6 36.6
01:30 1018 30.06 847 25.01 17.9 64.3 38 3.7 38.7
01:35 1018 30.06 847 25.01 17.6 63.7 39 3.5 38.3
01:40 1018 30.06 847 25.01 17.4 63.3 41 4 39.3
01:45 1018 30.06 847 25.01 17.2 62.9 40 3.6 38.5
01:50 1018 30.06 847 25.01 17 62.6 42 4.1 39.4
01:55 1018 30.06 847 25.01 16.5 61.7 44 4.3 39.7
02:00 1018 30.06 847 25.01 16.2 61.2 45 4.3 39.8
02:05 1018 30.06 847 25.01 16.2 61.2 46 4.6 40.3
02:10 1018 30.06 847 25.01 15.8 60.4 46 4.4 40
02:15 1018 30.06 847 25.01 15.6 60.1 46 4 39.2
02:20 1018 30.06 847 25.01 15.7 60.3 45 4 39.2
02:25 1018 30.06 847 25.01 15.8 60.4 46 4.2 39.5
02:30 1018 30.06 847 25.01 15.8 60.4 43 3.4 38.2
02:35 1018 30.06 848 25.04 15.9 60.6 43 3.6 38.4
02:40 1018 30.06 848 25.04 15.9 60.7 43 3.6 38.5
02:45 1018 30.06 848 25.04 15.9 60.6 46 4.3 39.7
02:50 1018 30.06 848 25.04 15.9 60.6 43 3.4 38.1
02:55 1018 30.06 848 25.04 15.8 60.4 47 4.5 40.2
03:00 1018 30.06 848 25.04 15.7 60.2 43 3.2 37.8
03:05 1018 30.06 848 25.04 15.6 60.1 43 3.3 37.9
03:10 1019 30.09 848 25.04 15.5 60 43 3.1 37.6
03:15 1018 30.06 848 25.04 15.4 59.8 45 3.7 38.6
03:20 1018 30.06 848 25.04 15.3 59.6 46 3.7 38.7
03:25 1018 30.06 848 25.04 15.1 59.2 45 3.3 38
03:30 1019 30.09 848 25.04 15.3 59.5 47 4.2 39.6
03:35 1019 30.09 848 25.04 15.2 59.3 43 2.9 37.3
03:40 1019 30.09 848 25.04 15.4 59.7 45 3.7 38.6
03:45 1019 30.09 848 25.04 14.9 58.7 48 4 39.1
03:50 1019 30.09 848 25.04 14.4 57.9 50 4.1 39.4
03:55 1019 30.09 848 25.04 14.3 57.8 48 3.7 38.6
04:00 1019 30.09 848 25.04 14.6 58.3 47 3.5 38.3
04:05 1019 30.09 848 25.04 14.8 58.6 46 3.5 38.3
04:10 1019 30.09 848 25.04 14.8 58.6 48 3.8 38.9
04:15 1019 30.09 848 25.04 14.7 58.5 46 3.4 38
04:20 1019 30.09 848 25.04 14.8 58.6 47 3.7 38.6
04:25 1019 30.09 848 25.04 14.8 58.6 47 3.8 38.8
04:30 1019 30.09 848 25.04 14.6 58.3 47 3.4 38.1
04:35 1019 30.09 848 25.04 14.7 58.4 47 3.6 38.4
04:40 1019 30.09 848 25.04 14.6 58.3 48 3.7 38.6
04:45 1019 30.09 848 25.04 14.7 58.4 47 3.6 38.5
04:50 1019 30.09 848 25.04 14.9 58.8 46 3.6 38.4
04:55 1019 30.09 848 25.04 14.8 58.6 47 3.8 38.8
05:00 1019 30.09 848 25.04 14.6 58.2 49 4.1 39.4
05:05 1019 30.09 848 25.04 14.4 58 48 3.7 38.7
05:10 1019 30.09 848 25.04 14.5 58.2 47 3.5 38.2
05:15 1019 30.09 848 25.04 14.7 58.4 45 3 37.4
05:20 1019 30.09 848 25.04 15 59 47 3.8 38.8
05:25 1019 30.09 848 25.04 14.6 58.4 48 3.7 38.7
05:30 1019 30.09 848 25.04 14.4 58 48 3.8 38.8
05:35 1019 30.09 848 25.04 14.1 57.3 50 3.9 39.1
05:40 1019 30.09 848 25.04 13.9 57 50 3.6 38.5
05:45 1019 30.09 848 25.04 14 57.3 49 3.5 38.3
05:50 1019 30.09 848 25.04 14.2 57.6 49 3.7 38.7
05:55 1019 30.09 848 25.04 14.1 57.5 50 4 39.2
06:00 1019 30.09 848 25.04 13.7 56.7 51 3.9 39.1
06:05 1019 30.09 848 25.04 13.7 56.6 53 4.3 39.7
06:10 1019 30.09 848 25.04 13.3 55.9 53 3.9 39
06:15 1019 30.09 848 25.04 13.4 56.1 51 3.6 38.5
06:20 1019 30.09 848 25.04 13.8 56.8 48 3.2 37.7
06:25 1019 30.09 848 25.04 14 57.2 50 3.7 38.7
06:30 1019 30.09 848 25.04 13.8 56.9 51 3.8 38.9
06:35 1019 30.09 848 25.04 13.8 56.9 50 3.6 38.5
06:40 1019 30.09 848 25.04 14.1 57.4 48 3.4 38.1
06:45 1019 30.09 848 25.04 14.3 57.7 47 3.2 37.7
06:50 1019 30.09 848 25.04 14.3 57.7 50 4.1 39.3
06:55 1019 30.09 848 25.04 14.3 57.7 48 3.4 38.1
07:00 1019 30.09 848 25.04 14.4 58 49 3.9 39
07:05 1019 30.09 848 25.04 14.5 58.2 49 3.9 39
07:10 1019 30.09 848 25.04 14.5 58 50 4.3 39.7
07:15 1019 30.09 848 25.04 14.4 57.9 47 3.4 38.1
07:20 1019 30.09 848 25.04 14.7 58.5 49 4.1 39.4
07:25 1019 30.09 848 25.04 15 59 47 4 39.2
07:30 1019 30.09 848 25.04 15.3 59.5 47 4.1 39.4
07:35 1019 30.09 848 25.04 15.4 59.7 47 4.3 39.7
07:40 1019 30.09 848 25.04 15.4 59.7 47 4.1 39.4
07:45 1019 30.09 848 25.04 15.8 60.4 45 4.1 39.4
07:50 1019 30.09 848 25.04 16.2 61.1 44 4.1 39.4
07:55 1019 30.09 848 25.04 16.5 61.7 43 4.1 39.4
08:00 1019 30.09 848 25.04 17.1 62.8 42 4.4 39.9
08:05 1019 30.09 848 25.04 17.3 63.2 44 5.2 41.3
08:10 1019 30.09 848 25.04 17.5 63.5 43 4.9 40.9
08:15 1019 30.09 848 25.04 17.8 64 44 5.5 41.8
08:20 1019 30.09 848 25.04 18.2 64.8 42 5.2 41.3
08:25 1019 30.09 848 25.04 18.4 65.2 41 5 41
08:30 1019 30.09 848 25.04 19 66.2 40 5.3 41.5
08:35 1019 30.09 848 25.04 19.3 66.8 39 5.3 41.6
08:40 1019 30.09 848 25.04 19.5 67 37 4.4 39.9
08:45 1019 30.09 848 25.04 19.6 67.2 37 4.5 40.1
08:50 1019 30.09 848 25.04 20 68.1 35 4.2 39.5
08:55 1019 30.09 848 25.04 20.4 68.8 33 3.9 39.1
09:00 1019 30.09 848 25.04 20.5 68.9 34 4.1 39.3
09:05 1019 30.09 848 25.04 21.1 69.9 32 4.1 39.4
09:10 1019 30.09 848 25.04 21.3 70.4 31 3.8 38.8
09:15 1019 30.09 848 25.04 21.8 71.3 31 4.3 39.7
09:20 1019 30.09 848 25.04 22 71.6 32 4.7 40.5
09:25 1019 30.09 848 25.04 21.8 71.2 35 5.8 42.5
09:30 1019 30.09 848 25.04 21.5 70.7 37 6.4 43.6
09:35 1019 30.09 848 25.04 21.4 70.5 36 6 42.8
09:40 1019 30.09 848 25.04 21.1 69.9 38 6.5 43.6
09:45 1019 30.09 848 25.04 20.5 68.8 38 5.8 42.5
09:50 1019 30.09 848 25.04 20.8 69.4 37 5.7 42.3
09:55 1019 30.09 848 25.04 21.5 70.6 34 5.3 41.5
10:00 1019 30.09 848 25.04 22.1 71.7 35 5.9 42.6
10:05 1019 30.09 848 25.04 21.6 70.8 37 6.5 43.7
10:10 1019 30.09 848 25.04 21.6 70.9 35 5.8 42.5
10:15 1019 30.09 848 25.04 21.6 70.8 36 5.9 42.7
10:20 1019 30.09 848 25.04 22.6 72.8 32 5.3 41.6
10:25 1019 30.09 848 25.04 23.2 73.7 33 6.2 43.1
10:30 1019 30.09 848 25.04 23.4 74.1 30 4.9 40.9
10:35 1019 30.09 848 25.04 24.1 75.3 28 4.9 40.8
10:40 1019 30.09 848 25.04 23.4 74.2 30 4.9 40.9
10:45 1018 30.06 848 25.04 23.8 74.8 28 4.4 40
10:50 1018 30.06 848 25.04 24.3 75.7 28 5.1 41.1
10:55 1018 30.06 847 25.01 24.2 75.6 27 4.4 40
11:00 1018 30.06 847 25.01 24.9 76.8 26 4.5 40.1
11:05 1018 30.06 847 25.01 25 76.9 24 3.5 38.3
11:10 1018 30.06 847 25.01 25 77 25 3.7 38.6
11:15 1018 30.06 847 25.01 25 76.9 23 2.9 37.3
11:20 1018 30.06 847 25.01 25.2 77.4 24 3.5 38.4
11:25 1018 30.06 847 25.01 24.5 76 27 4.3 39.7
11:30 1018 30.06 847 25.01 24.3 75.8 24 3 37.4
11:35 1018 30.06 847 25.01 24.5 76 26 3.7 38.7
11:40 1018 30.06 847 25.01 24.4 76 27 4.4 39.9
11:45 1018 30.06 847 25.01 25.6 78.1 24 3.7 38.6
11:50 1018 30.06 847 25.01 26.2 79.1 24 4.4 39.9
11:55 1018 30.06 847 25.01 26.1 79 24 4.5 40
12:00 1018 30.06 847 25.01 26.2 79.2 22 2.8 37.1
12:05 1018 30.06 847 25.01 26.1 79 23 3.5 38.3
12:10 1017 30.03 847 25.01 25.5 77.8 23 3.4 38
12:15 1017 30.03 847 25.01 25.8 78.4 24 4.2 39.5
12:20 1017 30.03 847 25.01 25.9 78.6 24 4 39.2
12:25 1017 30.03 846 24.98 25.7 78.2 24 3.7 38.7
12:30 1017 30.03 846 24.98 26.4 79.5 22 3.5 38.2
12:35 1017 30.03 846 24.98 27.3 81.2 22 3.9 39
12:40 1017 30.03 846 24.98 26.8 80.3 23 4 39.2
12:45 1017 30.03 846 24.98 26.4 79.5 23 4.2 39.5
12:50 1017 30.03 846 24.98 26.2 79.1 23 4 39.2
12:55 1017 30.03 846 24.98 27.3 81.1 21 3.3 37.9
13:00 1017 30.03 846 24.98 28.1 82.6 22 4.7 40.4
13:05 1017 30.03 846 24.98 28.4 83.1 21 4.2 39.5
13:10 1017 30.03 846 24.98 28.7 83.6 21 4.8 40.7
13:15 1016 30 846 24.98 29.1 84.4 19 3.5 38.4
13:20 1016 30 846 24.98 28.8 83.8 19 3.1 37.6
13:25 1016 30 846 24.98 28.3 82.9 18 2.2 35.9
13:30 1016 30 846 24.98 29.4 85 15 0.6 33.1
13:35 1016 30 846 24.98 29.2 84.5 16 0.8 33.4
13:40 1016 30 845 24.95 29.9 85.8 15 0.4 32.7
13:45 1016 30 845 24.95 29.2 84.6 14 -0.3 31.5
13:50 1016 30 845 24.95 29.4 84.8 16 0.9 33.6
13:55 1016 30 845 24.95 29.7 85.4 15 0.8 33.5
14:00 1016 30 845 24.95 30.4 86.8 15 1.5 34.8
14:05 1016 30 845 24.95 30.7 87.3 15 1 33.9
14:10 1016 30 845 24.95 30.6 87.1 15 1.8 35.2
14:15 1016 30 845 24.95 29.7 85.5 15 0.9 33.7
14:20 1016 30 845 24.95 29.2 84.6 15 0.7 33.2
14:25 1016 30 845 24.95 29.4 84.8 16 1.2 34.2
14:30 1016 30 845 24.95 30.2 86.4 14 0.1 32.2
14:35 1016 30 845 24.95 30.5 86.9 15 1.2 34.1
14:40 1016 30 845 24.95 29.4 85 17 1.9 35.4
14:45 1016 30 845 24.95 29.6 85.4 15 0.9 33.6
14:50 1016 30 845 24.95 30.3 86.5 15 1.1 33.9
14:55 1016 30 845 24.95 31.2 88.2 14 0.5 32.9
15:00 1015 29.97 845 24.95 31 87.7 15 1.4 34.4
15:05 1015 29.97 845 24.95 31 87.8 15 1.5 34.8
15:10 1015 29.97 845 24.95 31.7 89.1 13 0.8 33.5
15:15 1015 29.97 844 24.92 30.8 87.5 14 1 33.7
15:20 1015 29.97 845 24.95 31.1 88 14 0.8 33.5
15:25 1015 29.97 845 24.95 31.6 88.9 14 1.6 34.9
15:30 1015 29.97 845 24.95 31.8 89.2 16 2.8 37.1
15:35 1015 29.97 845 24.95 30.7 87.2 15 1.9 35.3
15:40 1015 29.97 845 24.95 30.3 86.5 15 1.5 34.6
15:45 1015 29.97 845 24.95 30.1 86.2 18 3.4 38.1
15:50 1015 29.97 845 24.95 30.2 86.3 18 3.3 37.9
15:55 1015 29.97 845 24.95 30.3 86.5 17 3.2 37.8
16:00 1015 29.97 845 24.95 30.7 87.3 18 4.2 39.5
16:05 1015 29.97 845 24.95 30.5 86.8 16 2.1 35.8
16:10 1015 29.97 845 24.95 30 86 17 3 37.4
16:15 1016 30 845 24.95 29.7 85.4 14 -0.2 31.7
16:20 1015 29.97 844 24.92 29.3 84.8 15 0.5 32.9
16:25 1015 29.97 844 24.92 30 86 16 1.5 34.7
16:30 1015 29.97 844 24.92 31.3 88.3 14 1 33.8
16:35 1015 29.97 844 24.92 31.4 88.5 15 2.4 36.4
16:40 1015 29.97 844 24.92 31.7 89.1 14 1.8 35.2
16:45 1015 29.97 844 24.92 31.6 88.9 15 1.8 35.3
16:50 1015 29.97 844 24.92 31.1 88 17 3.5 38.4
16:55 1015 29.97 844 24.92 30 86 16 1.9 35.5
17:00 1015 29.97 844 24.92 30.2 86.3 16 1.6 34.9
17:05 1015 29.97 844 24.92 30.6 87 16 2.4 36.4
17:10 1015 29.97 844 24.92 31.3 88.3 17 3.5 38.2
17:15 1015 29.97 844 24.92 31.4 88.4 16 3.2 37.7
17:20 1015 29.97 844 24.92 31.7 89 16 3.1 37.7
17:25 1015 29.97 844 24.92 31.1 88.1 16 3.1 37.5
17:30 1015 29.97 844 24.92 30.1 86.1 18 3.7 38.7
17:35 1015 29.97 844 24.92 29.8 85.7 19 4 39.1
17:40 1015 29.97 844 24.92 29.7 85.4 17 2.2 36
17:45 1015 29.97 844 24.92 29.6 85.3 17 2.2 36
17:50 1015 29.97 844 24.92 29.3 84.8 15 0.5 32.9
17:55 1015 29.97 845 24.95 29.1 84.4 17 1.9 35.5
18:00 1015 29.97 845 24.95 28.9 84 17 2 35.6
18:05 1015 29.97 845 24.95 28.5 83.3 17 1.1 33.9
18:10 1016 30 845 24.95 28.1 82.6 15 -0.6 30.8
18:15 1016 30 845 24.95 28.1 82.5 17 0.7 33.3
18:20 1016 30 845 24.95 27.9 82.1 16 0.3 32.5
18:25 1016 30 845 24.95 27.3 81.1 21 3.3 37.9
18:30 1016 30 845 24.95 26.7 80.1 19 1.8 35.2
18:35 1016 30 845 24.95 26.6 79.8 20 2 35.6
18:40 1016 30 845 24.95 26.4 79.5 20 1.9 35.4
18:45 1016 30 845 24.95 26.8 80.2 20 2 35.6
18:50 1016 30 845 24.95 26.9 80.4 19 1.8 35.2
18:55 1016 30 845 24.95 27.1 80.8 19 2.1 35.8
19:00 1016 30 845 24.95 26.9 80.4 19 1.6 34.9
19:05 1015 29.97 845 24.95 26.7 80 21 2.6 36.8
19:10 1016 30 845 24.95 26.3 79.3 23 3.7 38.6
19:15 1016 30 845 24.95 25.9 78.6 22 3.1 37.6
19:20 1016 30 845 24.95 25.8 78.5 21 2.4 36.3
19:25 1016 30 845 24.95 26.1 79 21 2.2 36
19:30 1016 30 845 24.95 25.9 78.7 23 3.4 38.1
19:35 1016 30 845 24.95 25.8 78.4 24 3.7 38.6
19:40 1016 30 845 24.95 25.7 78.2 22 2.6 36.6
19:45 1016 30 845 24.95 25.7 78.3 21 1.9 35.5
19:50 1015 29.97 845 24.95 25.8 78.4 21 1.8 35.3
19:55 1015 29.97 845 24.95 25.8 78.5 20 1.4 34.6
20:00 1016 30 845 24.95 26 78.7 20 1.8 35.2
20:05 1016 30 845 24.95 25.8 78.5 20 1.3 34.4
20:10 1016 30 845 24.95 25.7 78.3 21 2 35.6
20:15 1016 30 845 24.95 25.4 77.7 22 2.3 36.1
20:20 1016 30 845 24.95 25 77 22 2.2 35.9
20:25 1016 30 845 24.95 24.9 76.7 22 2.1 35.9
20:30 1016 30 845 24.95 24.8 76.6 23 2.3 36.2
20:35 1016 30 845 24.95 24.7 76.4 23 2.6 36.7
20:40 1016 30 845 24.95 24.5 76 23 2.5 36.5
20:45 1016 30 845 24.95 24.2 75.5 24 2.4 36.3
20:50 1016 30 845 24.95 24.1 75.3 24 2.3 36.1
20:55 1016 30 845 24.95 23.9 74.9 23 1.9 35.5
21:00 1016 30 845 24.95 23.9 75 24 2.4 36.2
21:05 1016 30 845 24.95 23.9 75 23 1.6 34.9
21:10 1016 30 845 24.95 24.3 75.8 23 1.8 35.3
21:15 1016 30 845 24.95 24.3 75.8 22 1.8 35.2
21:20 1016 30 845 24.95 24.2 75.6 23 1.7 35.1
21:25 1016 30 845 24.95 24.2 75.6 23 1.8 35.2
21:30 1016 30 845 24.95 24.1 75.5 26 3.5 38.2
21:35 1016 30 845 24.95 23.6 74.5 27 3.6 38.4
21:40 1016 30 845 24.95 23.2 73.7 26 2.9 37.3
21:45 1016 30 845 24.95 23.1 73.6 25 2.3 36.2
21:50 1016 30 845 24.95 23.4 74.2 23 1.1 34
21:55 1016 30 845 24.95 23.8 74.9 23 1.6 34.9
22:00 1016 30 845 24.95 23.9 75.1 25 2.7 36.8
22:05 1016 30 846 24.98 24.4 75.8 20 0.4 32.7
22:10 1016 30 846 24.98 24.4 75.8 22 1.5 34.6
22:15 1017 30.03 846 24.98 23.9 75.1 22 1 33.7
22:20 1017 30.03 846 24.98 23.6 74.5 24 2.2 36
22:25 1017 30.03 846 24.98 22.4 72.3 28 3.3 38
22:30 1017 30.03 846 24.98 22 71.6 25 1.2 34.2
22:35 1017 30.03 846 24.98 22.9 73.2 22 0.5 32.8
22:40 1017 30.03 846 24.98 23.4 74.1 21 0.1 32.3
22:45 1017 30.03 846 24.98 23.8 74.9 21 0.6 33.1
22:50 1017 30.03 846 24.98 23.7 74.7 21 0.6 33.1
22:55 1017 30.03 846 24.98 23.3 73.9 24 2 35.5
23:00 1017 30.03 846 24.98 22.4 72.4 25 1.4 34.6
23:05 1017 30.03 846 24.98 22.3 72.1 26 1.8 35.2
23:10 1017 30.03 846 24.98 21.9 71.5 26 1.8 35.3
23:15 1017 30.03 846 24.98 21.7 71.1 26 1.7 35
23:20 1017 30.03 846 24.98 22 71.5 24 0.9 33.5
23:25 1017 30.03 846 24.98 22.1 71.7 25 1.2 34.1
23:30 1017 30.03 846 24.98 22.1 71.8 24 1 33.8
23:35 1017 30.03 846 24.98 22.1 71.7 24 0.8 33.4
23:40 1017 30.03 846 24.98 21.9 71.5 24 0.9 33.7
23:45 1017 30.03 846 24.98 21.6 70.9 26 1.5 34.8
23:50 1017 30.03 846 24.98 21.3 70.4 24 0.3 32.5
23:55 1017 30.03 846 24.98 21.8 71.3 24 0.3 32.6
24:00 1017 30.03 846 24.98 22 71.7 22 -0.2 31.7